Latest Weather Observations for Norseman Airport

IDW60801

Issued at 5:03 pm WST Saturday 23 July 2016 (issued every 30 minutes, with the page automatically refreshed every 10 minutes)

About weather observations | Map of weather stations | Latest weather observations for WA | Other Formats
Station Details ID: 012009 Name: NORSEMAN AERO Lat: -32.21 Lon: 121.75 Height: 262.5 m
Data from the previous 72 hours. | See also: Recent months at Norseman Airport
Date/Time
WST
Temp
°C
App
Temp
°C
Dew
Point
°C
Rel
Hum
%
Delta-T
°C
Wind Press
QNH
hPa
Press
MSL
hPa
Rain since
9am
mm
Dir  Spd
km/h
Gust
km/h
Spd
kts
Gust
kts
23/05:00pm 12.4 6.6 4.4 58 3.7 WSW 24 32 13 17 1018.9 1019.1 0.0
23/04:30pm 12.8 7.4 4.5 57 3.8 WSW 22 30 12 16 1018.7 1018.9 0.0
23/04:06pm 13.0 6.4 4.2 55 4.1 WSW 28 46 15 25 1018.4 1018.6 0.0
23/04:00pm 13.1 5.1 3.7 53 4.3 WSW 35 48 19 26 1018.4 1018.6 0.0
23/03:30pm 14.0 5.7 4.0 51 4.6 WSW 37 46 20 25 1018.4 1018.6 0.0
23/03:00pm 13.9 6.5 3.9 51 4.6 WSW 32 41 17 22 1018.3 1018.5 0.0
23/02:30pm 13.5 6.0 3.6 51 4.5 W 32 43 17 23 1018.4 1018.6 0.0
23/02:00pm 13.3 6.1 3.1 50 4.6 W 30 44 16 24 1018.5 1018.7 0.0
23/01:30pm 13.2 5.7 3.6 52 4.4 W 32 44 17 24 1018.5 1018.7 0.0
23/01:00pm 12.8 6.7 2.6 50 4.5 W 24 39 13 21 1018.8 1019.0 0.0
23/12:30pm 12.3 5.0 2.5 51 4.3 W 30 44 16 24 1019.4 1019.5 0.0
23/12:00pm 11.7 4.0 2.5 53 4.0 W 32 43 17 23 1019.9 1020.1 0.0
23/11:30am 11.2 3.6 3.0 57 3.6 WSW 32 46 17 25 1020.6 1020.8 0.0
23/11:25am 11.2 4.2 2.2 54 3.9 W 28 46 15 25 1020.7 1020.9 0.0
23/11:00am 10.4 2.5 2.0 56 3.6 W 33 46 18 25 1021.1 1021.3 0.0
23/10:30am 9.7 1.7 1.4 56 3.5 W 33 46 18 25 1021.6 1021.8 0.0
23/10:00am 9.8 2.5 2.2 59 3.2 W 30 39 16 21 1021.8 1022.0 0.0
23/09:30am 8.9 4.2 2.9 66 2.6 W 17 22 9 12 1022.0 1022.2 0.0
23/09:00am 7.3 2.2 3.2 75 1.7 WSW 19 22 10 12 1022.2 1022.4 0.0
23/08:30am 4.5 1.9 4.4 99 0.0 SW 7 11 4 6 1022.1 1022.3 0.0
23/08:00am 2.6 1.0 2.5 99 0.0 CALM 0 0 0 0 1022.0 1022.2 0.0
23/07:30am 0.9 -1.0 0.8 99 0.0 CALM 0 0 0 0 1022.0 1022.2 0.0
23/07:00am -0.4 -2.5 -0.5 99 0.0 CALM 0 0 0 0 1021.8 1022.0 0.0
23/06:30am -0.2 -2.2 -0.3 99 0.0 CALM 0 0 0 0 1021.5 1021.7 0.0
23/06:00am 0.3 -1.7 0.2 99 0.0 CALM 0 0 0 0 1021.5 1021.7 0.0
23/05:30am 0.5 -1.4 0.4 99 0.0 CALM 0 0 0 0 1021.5 1021.7 0.0
23/05:00am 1.0 -0.8 0.9 99 0.0 CALM 0 0 0 0 1021.9 1022.1 0.0
23/04:30am 1.5 -1.0 1.4 99 0.0 E 4 7 2 4 1021.8 1022.0 0.0
23/04:00am 0.5 -1.4 0.4 99 0.0 CALM 0 0 0 0 1021.9 1022.1 0.0
23/03:30am 0.4 -1.5 0.3 99 0.0 CALM 0 0 0 0 1021.9 1022.1 0.0
23/03:00am -0.4 -2.5 -0.5 99 0.0 CALM 0 0 0 0 1021.9 1022.1 0.0
23/02:30am -0.7 -2.8 -0.8 99 0.0 CALM 0 0 0 0 1021.9 1022.1 0.0
23/02:00am -0.7 -2.8 -0.8 99 0.0 CALM 0 0 0 0 1021.8 1022.0 0.0
23/01:30am -0.2 -2.2 -0.3 99 0.0 CALM 0 0 0 0 1022.0 1022.2 0.0
23/01:00am 0.4 -1.6 0.1 98 0.1 CALM 0 0 0 0 1022.0 1022.2 0.0
23/12:30am 0.9 -1.0 0.5 97 0.1 CALM 0 0 0 0 1022.2 1022.4 0.0
23/12:00am 1.7 -0.1 1.3 97 0.2 CALM 0 0 0 0 1022.3 1022.5 0.0
 
Date/Time
WST
Temp
°C
App
Temp
°C
Dew
Point
°C
Rel
Hum
%
Delta-T
°C
Wind Press
QNH
hPa
Press
MSL
hPa
Rain since
9am
mm
Dir  Spd
km/h
Gust
km/h
Spd
kts
Gust
kts
22/11:30pm 2.7 1.0 2.1 96 0.2 CALM 0 0 0 0 1022.6 1022.9 0.0
22/11:00pm 3.8 2.3 2.9 94 0.4 CALM 0 0 0 0 1022.7 1023.0 0.0
22/10:30pm 5.2 3.2 4.2 93 0.4 W 4 6 2 3 1022.6 1022.9 0.0
22/10:00pm 5.7 3.7 4.5 92 0.5 W 4 6 2 3 1022.6 1022.9 0.0
22/09:30pm 6.1 4.1 4.4 89 0.7 S 4 7 2 4 1022.6 1022.9 0.0
22/09:00pm 6.7 4.2 4.9 88 0.8 S 7 11 4 6 1022.6 1022.9 0.0
22/08:30pm 6.8 4.3 5.0 88 0.8 S 7 7 4 4 1022.8 1023.1 0.0
22/08:00pm 6.9 5.7 4.4 84 1.1 CALM 0 0 0 0 1022.7 1023.0 0.0
22/07:30pm 7.4 6.2 4.7 83 1.2 CALM 0 0 0 0 1022.7 1023.0 0.0
22/07:00pm 7.8 6.5 4.0 77 1.7 CALM 0 0 0 0 1022.4 1022.6 0.0
22/06:30pm 8.3 5.9 4.3 76 1.8 SSW 6 9 3 5 1022.2 1022.4 0.0
22/06:00pm 8.5 5.5 4.1 74 1.9 SW 9 11 5 6 1021.9 1022.1 0.0
22/05:30pm 9.4 4.4 3.8 68 2.5 SSW 19 28 10 15 1021.6 1021.8 0.0
22/05:00pm 9.7 5.6 4.1 68 2.5 WSW 15 22 8 12 1021.3 1021.5 0.0
22/04:30pm 10.4 6.4 3.0 60 3.3 SSW 13 20 7 11 1021.2 1021.4 0.0
22/04:00pm 10.4 4.1 3.7 63 3.0 SW 26 35 14 19 1021.0 1021.2 0.0
22/03:30pm 11.1 5.1 3.2 58 3.5 SW 24 33 13 18 1020.8 1021.0 0.0
22/03:00pm 11.5 5.8 2.8 55 3.8 SW 22 32 12 17 1020.4 1020.6 0.0
22/02:30pm 11.5 5.9 3.3 57 3.7 SW 22 32 12 17 1020.3 1020.5 0.0
22/02:00pm 11.5 5.0 2.8 55 3.8 SW 26 37 14 20 1020.0 1020.2 0.0
22/01:30pm 11.7 6.4 3.0 55 3.9 SW 20 32 11 17 1020.1 1020.3 0.0
22/01:00pm 11.5 4.9 2.3 53 4.0 SW 26 32 14 17 1019.9 1020.1 0.0
22/12:30pm 11.3 4.0 2.3 54 3.9 SW 30 37 16 20 1020.0 1020.2 0.0
22/12:00pm 10.8 4.0 3.1 59 3.4 SW 28 39 15 21 1020.2 1020.4 0.0
22/11:30am 10.9 3.7 3.0 58 3.5 SW 30 39 16 21 1020.2 1020.4 0.0
22/11:00am 10.8 3.2 2.9 58 3.5 SW 32 39 17 21 1020.2 1020.4 0.0
22/10:30am 10.6 3.2 4.1 64 2.9 SW 32 43 17 23 1020.0 1020.2 0.0
22/10:00am 9.8 2.1 3.5 65 2.8 SW 33 44 18 24 1019.9 1020.1 0.0
22/09:30am 9.3 1.8 3.7 68 2.5 SW 32 44 17 24 1019.5 1019.7 0.0
22/09:00am 8.3 1.6 3.4 71 2.1 WSW 28 37 15 20 1018.9 1019.1 0.2
22/08:30am 7.4 1.4 3.3 75 1.8 WSW 24 32 13 17 1018.5 1018.7 0.2
22/08:00am 6.4 0.3 2.9 78 1.5 WSW 24 35 13 19 1018.0 1018.2 0.2
22/07:30am 5.7 0.0 2.7 81 1.3 WSW 22 30 12 16 1017.6 1017.8 0.2
22/07:00am 5.2 -0.5 2.6 83 1.1 WSW 22 28 12 15 1017.0 1017.2 0.2
22/06:30am 5.2 0.1 2.9 85 1.0 WSW 19 24 10 13 1016.7 1016.9 0.2
22/06:00am 5.6 -0.1 3.1 84 1.1 WSW 22 28 12 15 1016.2 1016.3 0.2
22/05:30am 5.9 0.6 3.2 83 1.1 WSW 20 30 11 16 1015.9 1016.0 0.2
22/05:00am 6.3 0.3 3.3 81 1.3 WSW 24 32 13 17 1015.5 1015.6 0.2
22/04:30am 6.7 0.7 3.5 80 1.4 WSW 24 33 13 18 1014.9 1015.1 0.2
22/04:00am 7.0 -0.1 3.6 79 1.5 WSW 30 46 16 25 1014.7 1014.9 0.2
22/03:30am 7.5 0.5 3.9 78 1.6 WSW 30 43 16 23 1014.4 1014.6 0.2
22/03:00am 8.0 0.1 4.6 79 1.5 WSW 35 48 19 26 1013.9 1014.1 0.2
22/02:31am 8.8 1.5 5.4 79 1.6 W 33 57 18 31 1013.3 1013.5 0.0
22/02:30am 8.9 1.8 5.3 78 1.6 W 32 46 17 25 1013.2 1013.4 0.0
22/02:01am 8.9 2.4 4.9 76 1.8 W 28 46 15 25 1012.8 1012.9 0.0
22/02:00am 8.9 2.0 4.7 75 1.9 W 30 46 16 25 1012.8 1012.9 0.0
22/01:30am 9.0 1.8 4.8 75 1.9 W 32 41 17 22 1012.9 1013.0 0.0
22/01:00am 8.6 1.1 4.4 75 1.9 WNW 33 41 18 22 1012.1 1012.2 0.0
22/12:38am 8.4 1.0 4.0 74 1.9 WNW 32 50 17 27 1011.8 1011.9 0.0
22/12:30am 8.5 0.9 3.9 73 2.0 WNW 33 50 18 27 1011.9 1012.0 0.0
22/12:00am 8.4 1.4 4.0 74 1.9 WNW 30 43 16 23 1011.8 1011.9 0.0
 
Date/Time
WST
Temp
°C
App
Temp
°C
Dew
Point
°C
Rel
Hum
%
Delta-T
°C
Wind Press
QNH
hPa
Press
MSL
hPa
Rain since
9am
mm
Dir  Spd
km/h
Gust
km/h
Spd
kts
Gust
kts
21/11:30pm 8.6 2.0 4.0 73 2.0 WNW 28 44 15 24 1012.0 1012.1 0.0
21/11:00pm 8.6 2.0 4.0 73 2.0 WNW 28 37 15 20 1012.0 1012.1 0.0
21/10:30pm 8.7 2.0 3.9 72 2.1 WNW 28 44 15 24 1011.9 1012.0 0.0
21/10:00pm 8.8 3.2 3.6 70 2.3 WNW 22 33 12 18 1011.8 1011.9 0.0
21/09:30pm 9.0 3.0 3.4 68 2.5 WNW 24 32 13 17 1012.1 1012.2 0.0
21/09:00pm 9.2 2.9 3.6 68 2.5 WNW 26 33 14 18 1012.0 1012.1 0.0
21/08:30pm 9.7 3.3 3.4 65 2.8 WNW 26 37 14 20 1011.7 1011.8 0.0
21/08:00pm 9.5 4.9 3.7 67 2.6 WNW 17 28 9 15 1011.5 1011.6 0.0
21/07:30pm 9.7 5.1 3.9 67 2.6 WNW 17 26 9 14 1010.9 1011.1 0.0
21/07:00pm 10.1 5.1 3.8 65 2.8 WNW 19 28 10 15 1010.5 1010.7 0.0
21/06:30pm 10.3 6.2 6.3 76 1.9 WNW 17 26 9 14 1010.1 1010.3 0.0
21/06:00pm 10.2 6.7 7.4 83 1.4 WNW 15 17 8 9 1009.9 1010.1 0.0
21/05:30pm 11.0 6.8 8.1 82 1.4 WNW 20 32 11 17 1009.4 1009.5 0.0
21/05:00pm 11.3 7.7 8.2 81 1.5 NW 17 24 9 13 1008.7 1008.8 0.0
21/04:30pm 12.2 8.1 8.5 78 1.9 NW 20 28 11 15 1008.5 1008.6 0.0
21/04:00pm 12.6 7.9 9.2 80 1.7 NW 24 30 13 16 1008.5 1008.6 0.0
21/03:30pm 12.6 9.3 9.6 82 1.5 NW 17 24 9 13 1008.3 1008.4 0.0
21/03:00pm 12.5 7.1 7.8 73 2.3 WNW 26 37 14 20 1008.2 1008.3 0.0
21/02:30pm 13.2 6.9 7.6 69 2.8 WNW 30 41 16 22 1008.0 1008.1 0.0
21/02:00pm 12.9 7.9 8.0 72 2.5 WNW 24 32 13 17 1008.1 1008.2 0.0
21/01:30pm 12.4 6.2 7.7 73 2.3 WNW 30 39 16 21 1008.3 1008.4 0.0
21/01:00pm 12.5 5.9 7.6 72 2.4 WNW 32 41 17 22 1008.2 1008.3 0.0
21/12:43pm 12.3 5.3 7.0 70 2.6 WNW 33 52 18 28 1008.1 1008.2 0.0
21/12:30pm 12.5 5.7 7.6 72 2.4 WNW 33 50 18 27 1008.0 1008.1 0.0
21/12:00pm 11.7 4.9 6.8 72 2.4 WNW 32 46 17 25 1008.4 1008.5 0.0
21/11:30am 10.9 4.0 6.3 73 2.2 WNW 32 43 17 23 1009.0 1009.1 0.0
21/11:00am 11.0 4.7 5.7 70 2.5 NW 28 39 15 21 1009.1 1009.2 0.0
21/10:30am 9.1 3.8 6.9 86 1.0 NNE 24 28 13 15 1009.0 1009.1 0.0
21/10:00am 8.4 4.0 7.5 94 0.4 NNE 20 24 11 13 1009.3 1009.4 0.0
21/09:30am 7.7 4.3 7.6 99 0.0 N 15 19 8 10 1009.7 1009.8 0.0
21/09:00am 7.0 3.8 6.9 99 0.0 NNE 13 15 7 8 1009.9 1010.1 0.6
21/08:30am 6.6 3.7 6.6 100 0.0 N 11 13 6 7 1010.1 1010.3 0.6
21/08:00am 5.8 1.6 5.7 99 0.0 NNE 17 19 9 10 1009.7 1009.8 0.6
21/07:30am 5.1 1.1 5.0 99 0.0 NNE 15 19 8 10 1009.4 1009.5 0.6
21/07:00am 4.5 1.2 4.4 99 0.0 NE 11 15 6 8 1009.2 1009.3 0.6
21/06:30am 4.6 1.3 4.5 99 0.0 N 11 13 6 7 1009.5 1009.6 0.6
21/06:00am 5.0 1.0 5.0 100 0.0 N 15 19 8 10 1009.2 1009.3 0.6
21/05:30am 4.9 0.5 4.9 100 0.0 N 17 20 9 11 1009.0 1009.1 0.6
21/05:00am 2.8 -0.1 2.7 99 0.0 N 7 9 4 5 1009.0 1009.1 0.6
21/04:30am 2.5 0.9 2.4 99 0.0 CALM 0 6 0 3 1009.2 1009.3 0.6
21/04:00am 3.3 0.5 3.2 99 0.0 N 7 9 4 5 1009.4 1009.5 0.6
21/03:30am 4.0 1.5 3.9 99 0.0 N 6 7 3 4 1009.7 1009.8 0.6
21/03:00am 4.8 3.3 4.8 100 0.0 NW 2 6 1 3 1010.1 1010.3 0.6
21/02:30am 6.2 3.2 6.2 100 0.0 SW 11 13 6 7 1010.2 1010.4 0.6
21/02:00am 5.4 2.3 5.4 100 0.0 SSW 11 15 6 8 1010.7 1010.9 0.6
21/01:30am 4.0 1.5 3.9 99 0.0 S 6 7 3 4 1010.8 1011.0 0.6
21/01:00am 4.3 3.0 4.2 99 0.0 CALM 0 0 0 0 1011.0 1011.2 0.6
21/12:30am 4.8 3.6 4.7 99 0.0 CALM 0 4 0 2 1011.2 1011.3 0.6
21/12:00am 5.3 2.9 5.2 99 0.0 S 7 7 4 4 1011.2 1011.3 0.6
 
Date/Time
WST
Temp
°C
App
Temp
°C
Dew
Point
°C
Rel
Hum
%
Delta-T
°C
Wind Press
QNH
hPa
Press
MSL
hPa
Rain since
9am
mm
Dir  Spd
km/h
Gust
km/h
Spd
kts
Gust
kts
20/11:30pm 5.9 3.8 5.8 99 0.0 SE 6 7 3 4 1011.6 1011.7 0.6
20/11:00pm 6.7 4.8 6.6 99 0.0 S 6 7 3 4 1011.9 1012.0 0.6
20/10:30pm 7.4 6.4 7.3 99 0.0 SSE 2 6 1 3 1012.3 1012.4 0.6
20/10:00pm 8.4 8.0 8.3 99 0.0 CALM 0 0 0 0 1012.3 1012.4 0.6
20/09:30pm 9.1 7.7 9.0 99 0.0 NE 6 6 3 3 1012.5 1012.6 0.6
20/09:00pm 10.4 10.2 10.4 100 0.0 NE 2 6 1 3 1013.0 1013.2 0.6
20/08:30pm 10.6 9.4 10.4 99 0.1 ENE 7 9 4 5 1013.0 1013.2 0.6
20/08:00pm 11.0 11.3 10.8 99 0.1 CALM 0 0 0 0 1013.0 1013.2 0.6
20/07:30pm 11.1 11.4 10.9 99 0.1 CALM 0 0 0 0 1013.0 1013.2 0.6
20/07:00pm 11.2 11.5 11.0 99 0.1 CALM 0 0 0 0 1012.8 1012.9 0.6
20/06:30pm 11.3 11.7 11.1 99 0.1 CALM 0 0 0 0 1012.8 1012.9 0.6
20/06:00pm 11.5 11.2 11.3 99 0.1 SSW 4 7 2 4 1012.9 1013.0 0.6
20/05:30pm 11.7 11.8 11.4 98 0.2 SE 2 6 1 3 1012.8 1012.9 0.6

Other Formats:

Comma delimited format used in spreadsheet applications
http://www.bom.gov.au/fwo/IDW60801/IDW60801.95642.axf

JavaScript Object Notation format (JSON) in row-major order
http://www.bom.gov.au/fwo/IDW60801/IDW60801.95642.json